Time;durP1;ratioP1;P1;durP2;ratioP2;P2;SDS_P1;SDS_P2;PMS_P1;PMS_P2;Temp;Humidity;BMP_temperature;BMP_pressure;BME280_temperature;BME280_humidity;BME280_pressure;Samples;Min_cycle;Max_cycle;Signal;HPM_P1;HPM_P2
2022/01/27 00:05:17;;;;;;;3.78;0.90;;;27.20;86.40;;;;;;5034045;28;20475;-71
2022/01/27 00:07:56;;;;;;;7.60;1.13;;;27.20;85.90;;;;;;5032226;28;20037;-70
2022/01/27 00:12:52;;;;;;;4.70;0.68;;;27.30;84.90;;;;;;5033438;28;20091;-72
2022/01/27 00:15:27;;;;;;;5.38;0.70;;;27.30;83.90;;;;;;5033453;28;20064;-68
2022/01/27 00:18:02;;;;;;;9.90;1.17;;;27.30;85.30;;;;;;5032697;28;20048;-69
2022/01/27 00:20:31;;;;;;;4.50;0.90;;;27.30;84.50;;;;;;5033239;28;20079;-69
2022/01/27 00:22:58;;;;;;;5.13;0.80;;;27.30;84.10;;;;;;5032875;28;20091;-68
2022/01/27 00:25:25;;;;;;;10.13;1.42;;;27.20;83.30;;;;;;5033490;28;20025;-70
2022/01/27 00:27:53;;;;;;;8.57;1.00;;;27.30;84.00;;;;;;5032987;28;20025;-70
2022/01/27 00:30:21;;;;;;;5.95;0.85;;;27.40;84.10;;;;;;5027620;28;20052;-69
2022/01/27 00:32:48;;;;;;;5.20;1.05;;;27.40;83.20;;;;;;5032222;28;20113;-69
2022/01/27 00:35:15;;;;;;;34.45;5.47;;;27.40;83.80;;;;;;5033006;28;20052;-69
2022/01/27 00:37:43;;;;;;;7.72;1.33;;;27.50;84.00;;;;;;5032845;28;20060;-68
2022/01/27 00:40:12;;;;;;;9.32;1.35;;;27.60;83.50;;;;;;5031527;28;20037;-68
2022/01/27 00:42:44;;;;;;;11.35;2.38;;;27.70;83.70;;;;;;5031181;28;20021;-69
2022/01/27 00:45:12;;;;;;;4.07;0.60;;;27.80;84.30;;;;;;5032381;28;20406;-69
2022/01/27 00:47:39;;;;;;;5.03;0.70;;;27.80;84.80;;;;;;5032626;28;20033;-69
2022/01/27 00:50:07;;;;;;;4.78;0.70;;;27.90;84.80;;;;;;5030822;28;20026;-69
2022/01/27 00:52:40;;;;;;;5.25;1.88;;;27.90;85.30;;;;;;5032337;28;20071;-69
2022/01/27 00:55:09;;;;;;;9.00;0.93;;;27.80;84.90;;;;;;5032201;28;20025;-69
2022/01/27 01:00:31;;;;;;;10.05;0.90;;;27.90;85.90;;;;;;5032125;28;20064;-70
2022/01/27 01:03:06;;;;;;;4.40;0.60;;;27.90;84.80;;;;;;5032002;28;20156;-70
2022/01/27 01:11:27;;;;;;;24.98;4.13;;;28.00;85.70;;;;;;5022969;28;20053;-71
2022/01/27 01:16:43;;;;;;;5.47;0.68;;;28.40;84.20;;;;;;5032076;28;20099;-70
2022/01/27 01:19:24;;;;;;;8.80;0.93;;;28.60;82.70;;;;;;5032451;28;20104;-71
2022/01/27 01:32:57;;;;;;;6.43;1.30;;;28.90;82.20;;;;;;5031620;28;20049;-71
2022/01/27 01:35:35;;;;;;;6.68;0.70;;;29.00;83.30;;;;;;5031415;28;20105;-71
2022/01/27 01:38:03;;;;;;;6.18;0.60;;;29.20;81.90;;;;;;5031445;28;20048;-70
2022/01/27 01:40:30;;;;;;;5.75;1.25;;;29.40;80.80;;;;;;5031840;28;20022;-71
2022/01/27 01:42:58;;;;;;;4.53;0.98;;;29.40;79.90;;;;;;5030692;28;20199;-68
2022/01/27 01:45:26;;;;;;;7.57;1.55;;;29.40;80.10;;;;;;5026486;28;20017;-68
2022/01/27 01:47:54;;;;;;;4.95;0.82;;;29.30;78.60;;;;;;5030932;28;20025;-67
2022/01/27 01:50:22;;;;;;;6.75;0.90;;;29.50;80.30;;;;;;5031292;28;20033;-68
2022/01/27 01:52:52;;;;;;;3.40;0.73;;;29.50;78.40;;;;;;5031154;28;20029;-68
2022/01/27 01:55:19;;;;;;;5.45;0.80;;;29.30;80.00;;;;;;5030861;28;20028;-68
2022/01/27 01:57:47;;;;;;;6.32;0.95;;;29.20;79.20;;;;;;5031117;28;20033;-68
2022/01/27 02:00:15;;;;;;;6.82;1.63;;;29.30;80.60;;;;;;5031333;28;20021;-68
2022/01/27 02:02:42;;;;;;;8.93;1.00;;;29.30;80.00;;;;;;5031325;28;20021;-69
2022/01/27 02:05:10;;;;;;;5.82;1.35;;;29.20;80.40;;;;;;5030739;28;20541;-67
2022/01/27 02:08:28;;;;;;;5.28;0.93;;;29.20;80.60;;;;;;5030682;28;20462;-69
2022/01/27 02:19:21;;;;;;;4.20;0.65;;;28.70;80.70;;;;;;5031152;28;20601;-70
2022/01/27 02:22:04;;;;;;;4.93;0.73;;;28.80;80.00;;;;;;5030885;28;20032;-69
2022/01/27 02:24:34;;;;;;;5.57;0.60;;;29.00;80.30;;;;;;5031068;28;20045;-69
2022/01/27 02:27:03;;;;;;;7.53;1.08;;;29.20;80.40;;;;;;5030976;28;20072;-71
2022/01/27 02:29:30;;;;;;;5.60;0.88;;;29.20;80.90;;;;;;5028166;28;20105;-70
2022/01/27 02:32:00;;;;;;;6.72;1.13;;;29.10;79.90;;;;;;5030636;28;20053;-70
2022/01/27 02:34:27;;;;;;;8.52;0.60;;;29.20;80.10;;;;;;5029987;28;20017;-68
2022/01/27 02:36:55;;;;;;;5.85;0.77;;;29.40;79.30;;;;;;5026242;28;20017;-68
2022/01/27 02:39:23;;;;;;;6.22;0.90;;;29.40;77.20;;;;;;5030768;28;20036;-70
2022/01/27 02:41:51;;;;;;;8.65;1.92;;;29.30;79.90;;;;;;5030446;28;20152;-69
2022/01/27 02:44:35;;;;;;;13.07;3.05;;;29.70;80.00;;;;;;5030856;28;20017;-69
2022/01/27 02:47:02;;;;;;;8.05;3.20;;;30.10;77.50;;;;;;5030907;28;20068;-69
2022/01/27 02:49:30;;;;;;;8.95;0.90;;;29.80;78.40;;;;;;5030964;28;20083;-70
2022/01/27 02:51:57;;;;;;;7.72;1.30;;;29.40;78.80;;;;;;5029474;28;20129;-69
2022/01/27 02:54:24;;;;;;;5.53;0.77;;;29.30;80.20;;;;;;5030682;28;20382;-69
2022/01/27 02:56:52;;;;;;;5.90;0.90;;;29.50;81.30;;;;;;5030647;28;20022;-70
2022/01/27 02:59:21;;;;;;;6.95;0.85;;;29.70;82.30;;;;;;5030983;28;20014;-70
2022/01/27 03:01:51;;;;;;;5.68;1.00;;;29.90;80.00;;;;;;5030793;28;20022;-69
2022/01/27 03:04:19;;;;;;;8.07;0.88;;;30.10;80.00;;;;;;5031010;28;20083;-70
2022/01/27 03:06:49;;;;;;;2.97;0.50;;;30.30;79.20;;;;;;5030027;28;20079;-72
2022/01/27 03:09:17;;;;;;;5.82;0.68;;;30.10;79.70;;;;;;5030137;28;20379;-69
2022/01/27 03:11:57;;;;;;;6.03;1.00;;;30.00;80.10;;;;;;5029854;28;20470;-70
2022/01/27 03:14:25;;;;;;;8.90;1.30;;;30.30;80.70;;;;;;5029195;28;20022;-71
2022/01/27 03:16:59;;;;;;;7.35;1.23;;;30.70;80.10;;;;;;5030507;28;20600;-69
2022/01/27 03:19:28;;;;;;;21.85;3.08;;;31.00;77.20;;;;;;5031295;28;20348;-69
2022/01/27 03:21:56;;;;;;;7.85;0.80;;;31.40;77.30;;;;;;5030924;28;20109;-69
2022/01/27 03:24:27;;;;;;;5.72;0.60;;;31.50;76.10;;;;;;5030939;28;20505;-68
2022/01/27 03:26:55;;;;;;;6.60;1.10;;;31.70;74.50;;;;;;5030494;28;20025;-72
2022/01/27 03:29:23;;;;;;;9.10;1.00;;;32.00;74.60;;;;;;5034424;28;20026;-70
2022/01/27 03:31:54;;;;;;;5.45;0.70;;;32.40;73.80;;;;;;5034551;28;20037;-70
2022/01/27 03:34:21;;;;;;;7.57;1.65;;;32.40;74.00;;;;;;5034411;28;20063;-68
2022/01/27 03:36:49;;;;;;;3.45;0.50;;;32.70;73.40;;;;;;5033771;28;20440;-71
2022/01/27 03:39:19;;;;;;;7.07;1.95;;;32.60;70.60;;;;;;5033931;28;20373;-69
2022/01/27 03:41:51;;;;;;;12.38;2.10;;;32.70;71.60;;;;;;5033286;28;20028;-71
2022/01/27 03:44:20;;;;;;;18.35;2.53;;;33.30;70.90;;;;;;5033678;28;20478;-69
2022/01/27 03:46:49;;;;;;;10.65;1.88;;;33.80;71.80;;;;;;5033378;28;20021;-68
2022/01/27 03:49:19;;;;;;;9.88;1.50;;;33.80;71.50;;;;;;5033730;28;20026;-69
2022/01/27 03:51:47;;;;;;;6.70;1.17;;;33.50;72.70;;;;;;5033541;28;20030;-70
2022/01/27 03:54:16;;;;;;;9.18;1.15;;;33.90;72.20;;;;;;5033221;28;20036;-69
2022/01/27 03:56:44;;;;;;;6.72;1.00;;;33.70;73.00;;;;;;5032196;28;20038;-69
2022/01/27 03:59:11;;;;;;;4.85;0.70;;;33.80;73.30;;;;;;5033125;28;20053;-70
2022/01/27 04:01:39;;;;;;;6.28;1.30;;;33.90;73.70;;;;;;5032095;28;20338;-69
2022/01/27 04:04:06;;;;;;;5.95;0.80;;;33.80;74.00;;;;;;5033242;28;20026;-70
2022/01/27 04:06:40;;;;;;;7.25;1.60;;;33.70;74.60;;;;;;5032715;28;20017;-69
2022/01/27 04:09:10;;;;;;;6.85;1.02;;;34.10;73.60;;;;;;5033391;28;20072;-70
2022/01/27 04:11:39;;;;;;;6.28;0.90;;;34.50;73.80;;;;;;5032231;28;20045;-70
2022/01/27 04:14:07;;;;;;;4.90;0.88;;;34.70;73.70;;;;;;5033109;28;20108;-69
2022/01/27 04:16:34;;;;;;;14.38;2.92;;;34.70;73.70;;;;;;5032691;28;20473;-70
2022/01/27 04:19:03;;;;;;;5.30;1.10;;;34.70;73.50;;;;;;5033128;28;20033;-69
2022/01/27 04:21:30;;;;;;;6.75;1.05;;;34.60;73.60;;;;;;5032810;28;20080;-67
2022/01/27 04:23:58;;;;;;;8.48;1.10;;;34.30;74.20;;;;;;5033077;28;20109;-71
2022/01/27 04:26:34;;;;;;;5.60;1.02;;;34.50;73.80;;;;;;5032234;28;20026;-70
2022/01/27 04:29:01;;;;;;;7.72;1.15;;;34.20;74.20;;;;;;5032436;28;20018;-70
2022/01/27 04:31:30;;;;;;;7.25;1.17;;;34.40;73.40;;;;;;5032506;28;20079;-72
2022/01/27 04:33:58;;;;;;;12.25;1.33;;;34.20;74.30;;;;;;5032750;28;20017;-70
2022/01/27 04:36:30;;;;;;;5.25;1.13;;;34.00;73.60;;;;;;5031162;28;20393;-72
2022/01/27 04:42:11;;;;;;;4.25;0.90;;;34.00;73.70;;;;;;5019729;28;20048;-71
2022/01/27 04:45:13;;;;;;;5.70;1.15;;;34.00;73.20;;;;;;5031321;28;20025;-72
2022/01/27 04:47:38;;;;;;;6.45;1.02;;;33.50;73.50;;;;;;5031134;28;20121;-72
2022/01/27 04:50:06;;;;;;;12.18;1.10;;;33.30;74.00;;;;;;5032242;28;20029;-70
2022/01/27 04:52:37;;;;;;;3.95;0.80;;;33.00;72.70;;;;;;5031913;28;20029;-71
2022/01/27 04:55:09;;;;;;;4.93;0.82;;;33.00;72.70;;;;;;5032323;28;20025;-71
2022/01/27 04:57:39;;;;;;;;;;;32.70;73.00;;;;;;5032770;28;20032;-69
2022/01/27 05:00:07;;;;;;;7.72;1.08;;;32.20;74.30;;;;;;5032326;28;20377;-70
2022/01/27 05:05:06;;;;;;;3.72;0.82;;;31.70;75.30;;;;;;5032509;28;20025;-71
2022/01/27 05:07:33;;;;;;;8.38;1.27;;;31.90;74.50;;;;;;5031874;28;20543;-68
2022/01/27 05:10:09;;;;;;;5.10;0.77;;;31.70;75.70;;;;;;5032243;28;20541;-70
2022/01/27 05:12:45;;;;;;;7.15;0.80;;;32.10;74.90;;;;;;5031830;28;20037;-70
2022/01/27 05:15:12;;;;;;;5.85;1.13;;;32.20;74.10;;;;;;5031980;28;20079;-69
2022/01/27 05:17:40;;;;;;;3.97;0.70;;;32.10;74.30;;;;;;5031205;28;20385;-70
2022/01/27 05:20:08;;;;;;;4.72;1.05;;;31.80;75.00;;;;;;5032025;28;20057;-72
2022/01/27 05:22:35;;;;;;;5.45;0.90;;;31.10;77.30;;;;;;5031988;28;20525;-70
2022/01/27 05:25:03;;;;;;;4.88;1.00;;;30.70;78.90;;;;;;5032081;28;20779;-71
2022/01/27 05:27:30;;;;;;;6.68;1.13;;;30.70;78.80;;;;;;5030098;28;20029;-70
2022/01/27 05:29:58;;;;;;;8.45;0.85;;;30.80;78.20;;;;;;5031220;28;20040;-70
2022/01/27 05:32:25;;;;;;;6.03;0.68;;;31.40;77.70;;;;;;5031323;28;20029;-70
2022/01/27 05:34:52;;;;;;;7.10;0.75;;;31.40;77.40;;;;;;5031595;28;20021;-70
2022/01/27 05:37:19;;;;;;;5.70;0.50;;;31.70;76.90;;;;;;5031016;28;20022;-70
2022/01/27 05:39:47;;;;;;;18.20;1.83;;;32.20;76.80;;;;;;5031100;28;20164;-69
2022/01/27 05:42:14;;;;;;;5.05;1.25;;;32.50;75.50;;;;;;5030948;28;20121;-70
2022/01/27 05:44:41;;;;;;;6.43;1.20;;;32.30;76.10;;;;;;5031395;28;20091;-69
2022/01/27 05:47:09;;;;;;;6.97;1.25;;;32.30;76.40;;;;;;5030478;28;20068;-69
2022/01/27 05:49:36;;;;;;;8.00;1.45;;;32.10;76.40;;;;;;5031079;28;20020;-70
2022/01/27 05:52:03;;;;;;;8.00;1.00;;;31.70;76.30;;;;;;5030516;28;20038;-69
2022/01/27 05:54:34;;;;;;;4.20;0.85;;;31.10;77.70;;;;;;5031059;28;20135;-70
2022/01/27 05:57:01;;;;;;;3.80;0.73;;;31.20;77.90;;;;;;5030765;28;20052;-70
2022/01/27 05:59:28;;;;;;;7.38;1.10;;;31.10;77.90;;;;;;5031082;28;20537;-69
2022/01/27 06:01:56;;;;;;;5.63;0.98;;;30.80;79.00;;;;;;5031477;28;20147;-69
2022/01/27 06:04:23;;;;;;;9.23;1.27;;;30.30;81.00;;;;;;5031614;28;20363;-69
2022/01/27 06:06:53;;;;;;;9.32;1.65;;;29.70;82.50;;;;;;5030665;28;20022;-69
2022/01/27 06:09:20;;;;;;;7.60;0.88;;;29.60;83.10;;;;;;5031227;28;20021;-71
2022/01/27 06:11:48;;;;;;;7.50;0.98;;;29.60;83.40;;;;;;5031328;28;20398;-69
2022/01/27 06:14:15;;;;;;;8.55;1.63;;;29.40;82.40;;;;;;5031278;28;20034;-69
2022/01/27 06:16:44;;;;;;;6.85;1.10;;;29.10;83.50;;;;;;5030841;28;20496;-69
2022/01/27 06:19:12;;;;;;;10.50;1.35;;;28.80;84.90;;;;;;5031086;28;20378;-69
2022/01/27 06:21:42;;;;;;;7.72;1.08;;;28.60;86.00;;;;;;5031136;28;20026;-69
2022/01/27 06:24:10;;;;;;;6.32;1.27;;;28.40;86.70;;;;;;5031350;28;20180;-69
2022/01/27 06:26:39;;;;;;;5.85;1.30;;;28.40;86.70;;;;;;5030820;28;20639;-70
2022/01/27 06:29:06;;;;;;;9.68;1.00;;;28.10;87.50;;;;;;5029975;28;20034;-69
2022/01/27 06:31:33;;;;;;;7.10;1.80;;;28.00;87.40;;;;;;5030903;28;20111;-69
2022/01/27 06:34:01;;;;;;;10.00;0.98;;;27.80;88.00;;;;;;5031268;28;20363;-71
2022/01/27 06:36:28;;;;;;;7.57;1.13;;;27.70;88.40;;;;;;5030637;28;20389;-72
2022/01/27 06:38:56;;;;;;;5.75;1.23;;;27.80;88.10;;;;;;5030968;28;20360;-72
2022/01/27 06:41:23;;;;;;;7.18;1.10;;;27.80;87.70;;;;;;5030754;28;20014;-69
2022/01/27 06:43:53;;;;;;;7.43;1.02;;;27.60;88.30;;;;;;5029996;28;20033;-69
2022/01/27 06:46:20;;;;;;;5.20;0.95;;;27.50;87.70;;;;;;5030248;28;20026;-70
2022/01/27 06:48:48;;;;;;;8.77;1.17;;;27.50;88.10;;;;;;5031012;28;20382;-69
2022/01/27 06:51:15;;;;;;;8.57;1.30;;;27.40;89.50;;;;;;5013670;28;20037;-68
2022/01/27 06:53:43;;;;;;;6.53;0.80;;;27.40;89.40;;;;;;5030607;28;20371;-71
2022/01/27 06:56:11;;;;;;;11.35;1.05;;;27.50;89.50;;;;;;5030522;28;20029;-69
2022/01/27 06:58:38;;;;;;;4.60;0.93;;;27.40;89.10;;;;;;5010478;28;20025;-68
2022/01/27 07:01:05;;;;;;;7.65;1.55;;;27.40;89.20;;;;;;5010881;28;20108;-69
2022/01/27 07:03:32;;;;;;;9.02;1.17;;;27.30;89.50;;;;;;5012339;28;20578;-68
2022/01/27 07:06:00;;;;;;;6.85;0.90;;;27.40;89.70;;;;;;5014686;28;20491;-71
2022/01/27 07:08:27;;;;;;;7.78;0.90;;;27.40;89.30;;;;;;5033511;28;20382;-70
2022/01/27 07:10:54;;;;;;;7.22;0.90;;;27.30;88.60;;;;;;5034246;28;20494;-71
2022/01/27 07:13:22;;;;;;;8.88;1.45;;;27.10;89.30;;;;;;5034269;28;20052;-70
2022/01/27 07:15:50;;;;;;;8.23;1.25;;;27.00;89.30;;;;;;5033247;28;20017;-72
2022/01/27 07:18:17;;;;;;;7.60;1.67;;;27.00;89.20;;;;;;5032830;28;20036;-69
2022/01/27 07:20:45;;;;;;;8.57;1.50;;;27.00;88.40;;;;;;5034494;28;20016;-69
2022/01/27 07:23:12;;;;;;;9.85;1.00;;;26.90;88.70;;;;;;5034344;28;20032;-69
2022/01/27 07:25:40;;;;;;;9.07;0.93;;;27.00;88.60;;;;;;5034235;28;20029;-70
2022/01/27 07:28:07;;;;;;;10.40;1.75;;;26.90;89.20;;;;;;5032339;28;20026;-72
2022/01/27 07:30:34;;;;;;;5.72;0.90;;;26.80;89.60;;;;;;5033931;28;20071;-71
2022/01/27 07:33:02;;;;;;;10.27;2.28;;;26.90;89.70;;;;;;5033944;28;20607;-68
2022/01/27 07:35:29;;;;;;;9.25;2.42;;;26.80;89.90;;;;;;5033977;28;20021;-70
2022/01/27 07:37:56;;;;;;;5.57;1.08;;;26.60;90.00;;;;;;5033575;28;20424;-71
2022/01/27 07:40:24;;;;;;;7.97;1.05;;;26.50;90.60;;;;;;5033549;28;20022;-68
2022/01/27 07:42:51;;;;;;;5.57;1.08;;;26.40;90.90;;;;;;5033770;28;20021;-70
2022/01/27 07:45:18;;;;;;;6.80;1.05;;;26.30;91.20;;;;;;5034037;28;20496;-70
2022/01/27 07:47:46;;;;;;;9.00;1.27;;;26.30;91.40;;;;;;5032527;28;20156;-70
2022/01/27 07:50:13;;;;;;;7.18;1.23;;;26.30;91.30;;;;;;5051390;28;20438;-71
2022/01/27 07:52:43;;;;;;;6.78;1.30;;;26.20;91.40;;;;;;5053302;28;20151;-70
2022/01/27 07:55:12;;;;;;;9.00;2.22;;;26.20;91.50;;;;;;5053338;28;20017;-70
2022/01/27 07:57:39;;;;;;;7.65;1.35;;;26.10;91.70;;;;;;5039887;28;20108;-71
2022/01/27 08:00:09;;;;;;;6.82;1.23;;;26.00;91.90;;;;;;5031857;28;20097;-70
2022/01/27 08:02:37;;;;;;;7.65;1.55;;;26.00;92.00;;;;;;5033153;28;20040;-71
2022/01/27 08:05:04;;;;;;;8.00;0.98;;;26.00;92.00;;;;;;5033247;28;20053;-71
2022/01/27 08:07:32;;;;;;;4.30;1.00;;;26.00;92.20;;;;;;5032556;28;20112;-71
2022/01/27 08:09:59;;;;;;;6.05;0.90;;;25.80;92.30;;;;;;5032797;28;20034;-70
2022/01/27 08:12:26;;;;;;;6.40;1.08;;;25.80;92.20;;;;;;5033266;28;20087;-71
2022/01/27 08:14:54;;;;;;;7.90;1.50;;;25.60;92.30;;;;;;5032166;28;20029;-72
2022/01/27 08:17:21;;;;;;;11.20;1.77;;;25.60;92.30;;;;;;5032697;28;20022;-71
2022/01/27 08:19:48;;;;;;;6.68;1.17;;;25.60;92.20;;;;;;5033187;28;20347;-70
2022/01/27 08:22:15;;;;;;;8.15;2.70;;;25.50;92.40;;;;;;5032648;28;20029;-70
2022/01/27 08:24:43;;;;;;;7.93;1.17;;;25.40;92.60;;;;;;5031731;28;20374;-71
2022/01/27 08:27:14;;;;;;;6.43;1.98;;;25.40;92.80;;;;;;5029997;28;20585;-71
2022/01/27 08:29:47;;;;;;;9.23;1.17;;;25.30;93.00;;;;;;5028762;28;20017;-72
2022/01/27 08:32:18;;;;;;;9.27;2.35;;;25.30;93.00;;;;;;5031773;28;20037;-73
2022/01/27 08:34:46;;;;;;;8.87;1.13;;;25.30;93.10;;;;;;5031904;28;20040;-69
2022/01/27 08:37:18;;;;;;;8.88;1.35;;;25.20;93.30;;;;;;5031628;28;20108;-71
2022/01/27 08:39:49;;;;;;;7.20;1.05;;;25.10;93.60;;;;;;5030846;28;20471;-73
2022/01/27 08:42:16;;;;;;;6.38;1.20;;;25.20;93.60;;;;;;5030633;28;20025;-70
2022/01/27 08:44:45;;;;;;;15.63;2.53;;;25.20;93.80;;;;;;5031234;28;20021;-72
2022/01/27 08:47:12;;;;;;;5.93;1.02;;;25.10;93.80;;;;;;5031377;28;20037;-69
2022/01/27 08:49:42;;;;;;;10.10;1.65;;;25.20;93.90;;;;;;5031466;28;20018;-74
2022/01/27 08:52:10;;;;;;;10.73;1.20;;;25.10;93.80;;;;;;5030879;28;20445;-73
2022/01/27 08:54:37;;;;;;;9.30;1.40;;;25.00;94.00;;;;;;5031702;28;20022;-72
2022/01/27 08:57:05;;;;;;;5.78;1.08;;;25.00;94.30;;;;;;5028288;28;20064;-71
2022/01/27 08:59:32;;;;;;;6.38;0.90;;;24.90;94.40;;;;;;5030187;28;20020;-70
2022/01/27 09:01:59;;;;;;;5.00;1.15;;;24.80;94.60;;;;;;5029059;28;20021;-71
2022/01/27 09:04:27;;;;;;;5.95;1.60;;;24.90;94.60;;;;;;5030052;28;20059;-69
2022/01/27 09:06:54;;;;;;;5.60;1.15;;;24.90;94.60;;;;;;5029490;28;20550;-71
2022/01/27 09:09:21;;;;;;;5.63;1.00;;;24.90;94.50;;;;;;5029145;28;20480;-70
2022/01/27 09:11:49;;;;;;;8.98;1.50;;;24.90;94.50;;;;;;5029477;28;20025;-72
2022/01/27 09:14:17;;;;;;;11.10;1.90;;;24.90;94.40;;;;;;5027895;28;20057;-71
2022/01/27 09:16:44;;;;;;;5.35;0.82;;;24.90;94.50;;;;;;5029754;28;20116;-70
2022/01/27 09:19:12;;;;;;;8.10;1.00;;;24.80;94.60;;;;;;5029556;28;20063;-73
2022/01/27 09:21:45;;;;;;;6.25;1.10;;;24.80;94.60;;;;;;5028983;28;20030;-71
2022/01/27 09:24:16;;;;;;;12.63;1.50;;;24.80;94.80;;;;;;5029334;28;20113;-68
2022/01/27 09:29:16;;;;;;;8.20;1.05;;;24.80;95.00;;;;;;5027840;28;20021;-72
2022/01/27 09:31:43;;;;;;;14.15;1.50;;;24.80;94.90;;;;;;5028312;28;20029;-69
2022/01/27 09:34:11;;;;;;;9.07;1.75;;;24.80;95.10;;;;;;5029107;28;20024;-71
2022/01/27 09:36:38;;;;;;;8.73;1.20;;;24.80;95.20;;;;;;5029255;28;20025;-70
2022/01/27 09:39:06;;;;;;;9.25;1.65;;;24.80;95.20;;;;;;5029421;28;20021;-69
2022/01/27 09:41:37;;;;;;;8.60;0.98;;;24.80;95.30;;;;;;5029381;28;20021;-70
2022/01/27 09:44:08;;;;;;;7.90;1.40;;;24.70;95.60;;;;;;5028562;28;20429;-69
2022/01/27 09:46:35;;;;;;;8.07;1.35;;;24.70;95.70;;;;;;5024373;28;20026;-71
2022/01/27 09:49:12;;;;;;;12.05;1.33;;;24.60;96.00;;;;;;5029692;28;20021;-71
2022/01/27 09:51:44;;;;;;;9.45;1.80;;;24.60;96.20;;;;;;5026634;28;20021;-71
2022/01/27 09:54:12;;;;;;;;;;;24.50;96.30;;;;;;5030263;28;20083;-68
2022/01/27 09:56:40;;;;;;;10.13;1.42;;;24.50;96.40;;;;;;5029548;28;19952;-68
2022/01/27 09:59:09;;;;;;;9.98;1.42;;;24.50;96.60;;;;;;5029177;28;20477;-70
2022/01/27 10:01:38;;;;;;;9.75;1.30;;;24.50;96.80;;;;;;5026091;28;20020;-71
2022/01/27 10:04:09;;;;;;;13.93;1.65;;;24.50;96.90;;;;;;5028311;28;20017;-72
2022/01/27 10:06:37;;;;;;;6.32;1.40;;;24.50;97.00;;;;;;5027073;28;20040;-68
2022/01/27 10:09:22;;;;;;;10.88;1.77;;;24.40;97.10;;;;;;5029352;28;20391;-67
2022/01/27 10:11:50;;;;;;;9.63;1.73;;;24.50;97.20;;;;;;5026135;28;20711;-73
2022/01/27 10:14:37;;;;;;;11.82;1.40;;;24.40;97.20;;;;;;5029985;28;20029;-72
2022/01/27 10:17:11;;;;;;;6.30;2.30;;;24.40;97.40;;;;;;5029442;28;20474;-70
2022/01/27 10:19:39;;;;;;;7.43;1.30;;;24.40;97.20;;;;;;5029410;28;20734;-70
2022/01/27 10:22:13;;;;;;;9.90;1.20;;;24.30;97.20;;;;;;5025683;28;20104;-72
2022/01/27 10:24:40;;;;;;;10.32;1.75;;;24.30;97.30;;;;;;5026457;28;20022;-70
2022/01/27 10:30:35;;;;;;;10.13;1.70;;;24.30;97.30;;;;;;5028387;28;20026;-67
2022/01/27 10:32:50;;;;;;;9.98;1.63;;;24.30;97.40;;;;;;5027875;28;20040;-70
2022/01/27 10:35:20;;;;;;;8.50;1.60;;;24.30;97.40;;;;;;5027014;28;20105;-72
2022/01/27 10:37:57;;;;;;;7.63;1.25;;;24.30;97.20;;;;;;5033256;28;20071;-70
2022/01/27 10:40:32;;;;;;;9.55;1.48;;;24.30;97.30;;;;;;5025534;28;20028;-68
2022/01/27 10:43:20;;;;;;;12.15;2.28;;;24.30;97.40;;;;;;5030715;28;20014;-70
2022/01/27 10:49:07;;;;;;;11.23;1.75;;;24.30;97.60;;;;;;5031165;28;20018;-67
2022/01/27 10:51:50;;;;;;;10.55;2.40;;;24.20;97.60;;;;;;5029564;28;20044;-69
2022/01/27 10:54:35;;;;;;;6.30;1.17;;;24.30;97.60;;;;;;5030316;28;20079;-68
2022/01/27 10:57:13;;;;;;;12.38;1.52;;;24.20;97.70;;;;;;5031613;28;20560;-72
2022/01/27 10:59:43;;;;;;;6.97;1.00;;;24.30;97.60;;;;;;5031295;28;20022;-67
2022/01/27 11:02:13;;;;;;;12.00;1.95;;;24.30;97.70;;;;;;5033151;28;20040;-71
2022/01/27 11:04:42;;;;;;;11.23;1.70;;;24.30;97.80;;;;;;5033035;28;20053;-70
2022/01/27 11:07:12;;;;;;;9.45;1.30;;;24.30;97.80;;;;;;5034298;28;20512;-71
2022/01/27 11:09:43;;;;;;;11.93;1.65;;;24.20;97.70;;;;;;5034196;28;20069;-69
2022/01/27 11:12:18;;;;;;;10.98;1.58;;;24.30;97.80;;;;;;5034207;28;20063;-71
2022/01/27 11:14:49;;;;;;;8.00;1.98;;;24.30;97.90;;;;;;5032813;28;20026;-67
2022/01/27 11:17:21;;;;;;;10.75;2.25;;;24.30;97.90;;;;;;5033147;28;20030;-71
2022/01/27 11:25:50;;;;;;;8.32;1.20;;;24.30;97.80;;;;;;5032206;28;20026;-70
2022/01/27 11:27:58;;;;;;;7.85;1.40;;;24.30;97.60;;;;;;5030959;28;20026;-69
2022/01/27 11:30:58;;;;;;;8.07;1.30;;;24.30;97.80;;;;;;5032912;28;20021;-70
2022/01/27 11:33:36;;;;;;;8.77;1.95;;;24.30;97.90;;;;;;5032147;28;20119;-71
2022/01/27 11:36:10;;;;;;;7.38;1.20;;;24.30;97.90;;;;;;5032987;28;20021;-70
2022/01/27 11:38:40;;;;;;;8.90;1.40;;;24.30;97.90;;;;;;5031262;28;20028;-69
2022/01/27 11:41:27;;;;;;;11.15;2.00;;;24.30;98.30;;;;;;5032928;28;20013;-69
2022/01/27 11:44:37;;;;;;;6.50;1.27;;;24.30;98.10;;;;;;5030954;28;20024;-71
2022/01/27 11:47:11;;;;;;;9.45;0.98;;;24.30;98.20;;;;;;5032461;28;20090;-69
2022/01/27 11:50:10;;;;;;;13.35;1.33;;;24.30;98.30;;;;;;5030537;28;20155;-68
2022/01/27 11:52:52;;;;;;;8.95;1.10;;;24.30;98.40;;;;;;5031326;28;20034;-71
2022/01/27 11:55:26;;;;;;;14.05;2.15;;;24.30;98.60;;;;;;5030340;28;20075;-71
2022/01/27 11:57:55;;;;;;;11.88;1.23;;;24.30;98.70;;;;;;5030769;28;20060;-67
2022/01/27 12:00:28;;;;;;;9.77;1.42;;;24.30;98.80;;;;;;5033274;28;20048;-70
2022/01/27 12:03:01;;;;;;;10.23;1.63;;;24.30;99.00;;;;;;5030748;28;20060;-71
2022/01/27 12:05:33;;;;;;;8.55;1.17;;;24.30;99.00;;;;;;5032676;28;20025;-71
2022/01/27 12:08:16;;;;;;;15.05;1.63;;;24.30;99.20;;;;;;5032449;28;20021;-70
2022/01/27 12:10:47;;;;;;;7.65;1.30;;;24.30;99.30;;;;;;5032249;28;20128;-69
2022/01/27 12:19:04;;;;;;;10.00;1.60;;;24.20;99.70;;;;;;5032061;28;20017;-71
2022/01/27 12:21:48;;;;;;;9.15;1.10;;;24.20;99.80;;;;;;5031651;28;20010;-70
2022/01/27 12:24:25;;;;;;;7.78;1.35;;;24.30;99.90;;;;;;5030216;28;20478;-69
2022/01/27 12:26:56;;;;;;;8.95;1.65;;;24.20;99.90;;;;;;5031401;28;20084;-70
2022/01/27 12:29:42;;;;;;;9.07;1.20;;;24.20;99.90;;;;;;5031929;28;20033;-71
2022/01/27 12:32:10;;;;;;;9.98;1.30;;;24.20;99.90;;;;;;5031830;28;20482;-71
2022/01/27 12:34:38;;;;;;;8.57;1.42;;;24.20;99.90;;;;;;5029734;28;20018;-71
2022/01/27 12:37:07;;;;;;;5.90;0.90;;;24.20;99.90;;;;;;5031188;28;20029;-69
2022/01/27 12:39:41;;;;;;;13.70;1.83;;;24.20;99.90;;;;;;5030681;28;20025;-72
2022/01/27 12:42:16;;;;;;;10.30;2.00;;;24.20;99.90;;;;;;5030888;28;20026;-68
2022/01/27 12:44:58;;;;;;;10.85;1.25;;;24.20;99.90;;;;;;5030370;28;20075;-66
2022/01/27 12:47:28;;;;;;;15.02;2.03;;;24.20;99.90;;;;;;5031146;28;20470;-68
2022/01/27 12:50:06;;;;;;;11.73;2.47;;;24.20;99.90;;;;;;5032848;28;20033;-69
2022/01/27 12:52:39;;;;;;;14.35;1.85;;;24.20;99.90;;;;;;5031783;28;20073;-70
2022/01/27 12:55:09;;;;;;;10.52;1.55;;;24.20;99.90;;;;;;5032707;28;20029;-71
2022/01/27 12:57:36;;;;;;;11.55;1.40;;;24.20;99.90;;;;;;5032688;28;20053;-68
2022/01/27 13:00:07;;;;;;;12.52;2.10;;;24.20;99.90;;;;;;5031986;28;20363;-69
2022/01/27 13:02:34;;;;;;;9.50;1.17;;;24.20;99.90;;;;;;5032492;28;20164;-69
2022/01/27 13:05:03;;;;;;;8.80;2.60;;;24.20;99.90;;;;;;5032264;28;20040;-70
2022/01/27 13:07:30;;;;;;;11.35;1.75;;;24.20;99.90;;;;;;5032597;28;20028;-69
2022/01/27 13:10:06;;;;;;;18.60;3.65;;;24.20;99.90;;;;;;5032469;28;20045;-69
2022/01/27 13:15:10;;;;;;;8.93;1.55;;;24.20;99.90;;;;;;5032183;28;20490;-71
2022/01/27 13:17:45;;;;;;;12.55;1.40;;;24.20;99.90;;;;;;5032146;28;20041;-69
2022/01/27 13:20:46;;;;;;;9.13;1.48;;;24.30;99.90;;;;;;5032200;28;20109;-70
2022/01/27 13:23:20;;;;;;;10.40;2.00;;;24.20;99.90;;;;;;5031517;28;20033;-69
2022/01/27 13:25:54;;;;;;;8.43;1.27;;;24.30;99.90;;;;;;5031483;28;20029;-69
2022/01/27 13:28:25;;;;;;;12.05;2.20;;;24.30;99.90;;;;;;5029856;28;20437;-69
2022/01/27 13:31:00;;;;;;;8.10;1.13;;;24.30;99.90;;;;;;5031929;28;20026;-67
2022/01/27 13:33:28;;;;;;;10.93;1.88;;;24.30;99.90;;;;;;5030286;28;20525;-68
2022/01/27 13:35:58;;;;;;;10.15;1.48;;;24.20;99.90;;;;;;5031313;28;20441;-70
2022/01/27 13:38:38;;;;;;;8.68;1.38;;;24.20;99.90;;;;;;5031816;28;20481;-68
2022/01/27 13:41:22;;;;;;;13.32;2.05;;;24.20;99.90;;;;;;5029948;28;20021;-68
2022/01/27 13:44:03;;;;;;;9.65;2.05;;;24.20;99.90;;;;;;5030168;28;20033;-67
2022/01/27 13:47:02;;;;;;;12.68;2.15;;;24.20;99.90;;;;;;5032175;28;20018;-68
2022/01/27 13:49:31;;;;;;;16.75;1.75;;;24.20;99.90;;;;;;5032360;28;20045;-68
2022/01/27 13:52:13;;;;;;;12.85;2.10;;;24.30;99.90;;;;;;5030551;28;20387;-69
2022/01/27 13:54:42;;;;;;;16.65;1.85;;;24.20;99.90;;;;;;5031985;28;20049;-69
2022/01/27 13:57:17;;;;;;;10.85;1.42;;;24.20;99.90;;;;;;5031823;28;20502;-69
2022/01/27 14:00:01;;;;;;;17.45;2.10;;;24.20;99.90;;;;;;5031781;28;20029;-69
2022/01/27 14:02:31;;;;;;;9.45;1.10;;;24.10;99.90;;;;;;5032043;28;20140;-68
2022/01/27 14:05:01;;;;;;;8.30;1.58;;;24.10;99.90;;;;;;5031457;28;20026;-68
2022/01/27 14:07:37;;;;;;;8.77;1.52;;;24.10;99.90;;;;;;5031798;28;20018;-68
2022/01/27 14:10:21;;;;;;;11.90;1.55;;;24.10;99.90;;;;;;5031721;28;20048;-67